Time;durP1;ratioP1;P1;durP2;ratioP2;P2;SDS_P1;SDS_P2;PMS_P1;PMS_P2;Temp;Humidity;BMP_temperature;BMP_pressure;BME280_temperature;BME280_humidity;BME280_pressure;Samples;Min_cycle;Max_cycle;Signal;HPM_P1;HPM_P2
2023/01/27 00:00:32;;;;;;;4.03;2.00;;;;;;;;;;5027377;28;20179;-75
2023/01/27 00:02:58;;;;;;;4.50;2.20;;;;;;;;;;5013386;28;20134;-75
2023/01/27 00:05:25;;;;;;;3.40;1.58;;;;;;;;;;5025927;28;20109;-75
2023/01/27 00:07:51;;;;;;;3.63;1.63;;;;;;;;;;5022418;28;20144;-74
2023/01/27 00:10:18;;;;;;;4.38;1.90;;;;;;;;;;5025655;28;20470;-75
2023/01/27 00:15:30;;;;;;;3.63;1.52;;;;;;;;;;5013689;28;20024;-75
2023/01/27 00:17:56;;;;;;;3.53;1.92;;;;;;;;;;5019505;28;20034;-75
2023/01/27 00:26:07;;;;;;;4.20;2.33;;;;;;;;;;5028645;28;20091;-75
2023/01/27 00:28:34;;;;;;;2.47;1.60;;;;;;;;;;5023267;28;20021;-75
2023/01/27 00:31:00;;;;;;;2.35;1.73;;;;;;;;;;5019821;28;20497;-75
2023/01/27 00:33:27;;;;;;;3.40;1.73;;;;;;;;;;5019577;28;20570;-75
2023/01/27 00:35:56;;;;;;;4.13;1.70;;;;;;;;;;5019903;28;20036;-74
2023/01/27 00:38:22;;;;;;;1.95;1.42;;;;;;;;;;5019018;28;20513;-75
2023/01/27 00:41:14;;;;;;;4.57;1.60;;;;;;;;;;5027063;28;20033;-74
2023/01/27 00:43:33;;;;;;;2.60;1.77;;;;;;;;;;5020517;28;20033;-75
2023/01/27 00:46:00;;;;;;;3.40;1.50;;;;;;;;;;5024690;28;20431;-75
2023/01/27 00:48:26;;;;;;;4.25;1.95;;;;;;;;;;5017560;28;20386;-75
2023/01/27 00:50:52;;;;;;;3.97;2.22;;;;;;;;;;5021659;28;20025;-74
2023/01/27 00:53:18;;;;;;;2.42;1.52;;;;;;;;;;5028119;28;20029;-74
2023/01/27 00:55:46;;;;;;;3.70;1.75;;;;;;;;;;5025144;28;20540;-74
2023/01/27 00:58:12;;;;;;;4.80;2.08;;;;;;;;;;5022977;28;20022;-74
2023/01/27 01:00:38;;;;;;;2.60;1.73;;;;;;;;;;5021272;28;20506;-74
2023/01/27 01:03:03;;;;;;;3.20;1.73;;;;;;;;;;5025380;28;20052;-74
2023/01/27 01:05:29;;;;;;;3.45;2.05;;;;;;;;;;5025002;28;20030;-75
2023/01/27 01:07:55;;;;;;;3.45;1.80;;;;;;;;;;5022064;28;20079;-75
2023/01/27 01:10:21;;;;;;;3.25;1.63;;;;;;;;;;5024466;28;20041;-74
2023/01/27 01:12:47;;;;;;;3.35;1.65;;;;;;;;;;5033471;28;20040;-75
2023/01/27 01:15:13;;;;;;;2.42;1.67;;;;;;;;;;5021571;28;20109;-75
2023/01/27 01:17:39;;;;;;;3.78;2.10;;;;;;;;;;5027697;28;20473;-75
2023/01/27 01:20:06;;;;;;;4.35;2.28;;;;;;;;;;5017149;28;20113;-75
2023/01/27 01:22:32;;;;;;;4.18;1.58;;;;;;;;;;5016409;28;20104;-74
2023/01/27 01:24:58;;;;;;;4.00;2.05;;;;;;;;;;5013428;28;20041;-74
2023/01/27 01:27:24;;;;;;;3.22;1.50;;;;;;;;;;5023539;28;20034;-74
2023/01/27 01:29:50;;;;;;;3.30;1.80;;;;;;;;;;5019711;28;20033;-74
2023/01/27 01:32:16;;;;;;;4.25;1.60;;;;;;;;;;5017849;28;20030;-74
2023/01/27 01:34:42;;;;;;;3.83;1.85;;;;;;;;;;5022914;28;20037;-74
2023/01/27 01:37:08;;;;;;;3.00;1.70;;;;;;;;;;5025271;28;20371;-74
2023/01/27 01:39:34;;;;;;;4.03;1.60;;;;;;;;;;5024023;28;20032;-74
2023/01/27 01:42:00;;;;;;;3.35;1.95;;;;;;;;;;5009253;28;20028;-74
2023/01/27 01:44:30;;;;;;;2.83;1.75;;;;;;;;;;5015104;28;20053;-74
2023/01/27 01:46:57;;;;;;;2.88;1.63;;;;;;;;;;5016250;28;20040;-74
2023/01/27 01:49:34;;;;;;;3.83;1.83;;;;;;;;;;5025888;28;20040;-74
2023/01/27 01:52:02;;;;;;;2.30;1.63;;;;;;;;;;5014383;28;20077;-74
2023/01/27 01:54:32;;;;;;;2.35;1.52;;;;;;;;;;5017393;28;20130;-73
2023/01/27 01:57:00;;;;;;;5.13;1.58;;;;;;;;;;5025197;28;20108;-74
2023/01/27 01:59:29;;;;;;;2.20;1.67;;;;;;;;;;5019577;28;20034;-74
2023/01/27 02:01:57;;;;;;;2.70;1.63;;;;;;;;;;5012189;28;20446;-74
2023/01/27 02:04:26;;;;;;;3.90;1.70;;;;;;;;;;5021497;28;20042;-74
2023/01/27 02:06:55;;;;;;;1.63;1.52;;;;;;;;;;5017657;28;20042;-74
2023/01/27 02:09:22;;;;;;;3.28;1.45;;;;;;;;;;5011378;28;20030;-74
2023/01/27 02:11:48;;;;;;;3.55;1.80;;;;;;;;;;5008863;28;20114;-74
2023/01/27 02:14:16;;;;;;;2.15;1.60;;;;;;;;;;5012593;28;20030;-74
2023/01/27 02:16:42;;;;;;;3.05;1.50;;;;;;;;;;5017755;28;20124;-75
2023/01/27 02:19:12;;;;;;;3.72;1.60;;;;;;;;;;5018140;28;20025;-74
2023/01/27 02:21:37;;;;;;;2.70;1.70;;;;;;;;;;5019766;28;20041;-74
2023/01/27 02:24:09;;;;;;;3.47;1.80;;;;;;;;;;5019930;28;20079;-74
2023/01/27 02:26:41;;;;;;;4.25;1.83;;;;;;;;;;5018844;28;20050;-74
2023/01/27 02:29:09;;;;;;;2.10;1.40;;;;;;;;;;5010745;28;20120;-75
2023/01/27 02:31:35;;;;;;;4.30;1.60;;;;;;;;;;5016266;28;20026;-74
2023/01/27 02:34:03;;;;;;;3.58;1.50;;;;;;;;;;5014637;28;20049;-74
2023/01/27 02:36:31;;;;;;;2.70;1.73;;;;;;;;;;5019256;28;20029;-74
2023/01/27 02:38:59;;;;;;;2.78;1.52;;;;;;;;;;5024927;28;20025;-74
2023/01/27 02:41:31;;;;;;;3.15;1.60;;;;;;;;;;5015517;28;20112;-74
2023/01/27 02:43:57;;;;;;;3.53;1.48;;;;;;;;;;5018295;28;20485;-74
2023/01/27 02:46:23;;;;;;;3.45;1.70;;;;;;;;;;5019456;28;20067;-74
2023/01/27 02:48:49;;;;;;;2.15;1.52;;;;;;;;;;5009726;28;20037;-74
2023/01/27 02:51:15;;;;;;;2.08;1.60;;;;;;;;;;5008448;28;20094;-74
2023/01/27 02:53:41;;;;;;;3.08;1.85;;;;;;;;;;5016262;28;20048;-74
2023/01/27 02:56:07;;;;;;;3.42;1.80;;;;;;;;;;5012932;28;20033;-74
2023/01/27 02:58:33;;;;;;;2.53;1.45;;;;;;;;;;5011864;28;20036;-74
2023/01/27 03:00:59;;;;;;;3.70;1.50;;;;;;;;;;5019879;28;20045;-74
2023/01/27 03:03:25;;;;;;;4.18;1.65;;;;;;;;;;5015547;28;20061;-74
2023/01/27 03:05:51;;;;;;;2.17;1.08;;;;;;;;;;5011337;28;20037;-74
2023/01/27 03:08:18;;;;;;;4.28;1.55;;;;;;;;;;5016117;28;20026;-74
2023/01/27 03:10:44;;;;;;;2.78;1.63;;;;;;;;;;5025906;28;20028;-74
2023/01/27 03:13:10;;;;;;;2.58;1.55;;;;;;;;;;5024916;28;20036;-74
2023/01/27 03:18:21;;;;;;;3.03;1.60;;;;;;;;;;5024228;28;20036;-74
2023/01/27 03:20:48;;;;;;;3.22;1.20;;;;;;;;;;5023376;28;20155;-74
2023/01/27 03:23:15;;;;;;;1.85;1.17;;;;;;;;;;5025720;28;20029;-74
2023/01/27 03:25:42;;;;;;;2.90;1.83;;;;;;;;;;5024527;28;20029;-74
2023/01/27 03:28:08;;;;;;;2.10;1.48;;;;;;;;;;5024529;28;20029;-74
2023/01/27 03:30:35;;;;;;;4.78;2.03;;;;;;;;;;5014800;28;20046;-74
2023/01/27 03:33:02;;;;;;;1.90;1.33;;;;;;;;;;5019285;28;20021;-74
2023/01/27 03:35:33;;;;;;;3.28;1.45;;;;;;;;;;5011423;28;20021;-75
2023/01/27 03:46:18;;;;;;;3.35;1.83;;;;;;;;;;5012929;28;20048;-74
2023/01/27 03:48:48;;;;;;;2.08;1.17;;;;;;;;;;5014637;28;20034;-74
2023/01/27 03:51:14;;;;;;;3.60;1.45;;;;;;;;;;5010598;28;20041;-74
2023/01/27 03:53:40;;;;;;;1.90;1.33;;;;;;;;;;5011730;28;20052;-74
2023/01/27 03:56:06;;;;;;;2.00;1.50;;;;;;;;;;5019685;28;20026;-75
2023/01/27 03:58:36;;;;;;;2.67;1.63;;;;;;;;;;5012282;28;20028;-74
2023/01/27 04:01:06;;;;;;;2.25;1.20;;;;;;;;;;5010243;28;20045;-75
2023/01/27 04:09:06;;;;;;;2.42;1.35;;;;;;;;;;5010761;28;20040;-74
2023/01/27 04:14:16;;;;;;;2.35;1.05;;;;;;;;;;5017239;28;20060;-74
2023/01/27 04:16:43;;;;;;;2.53;1.35;;;;;;;;;;5023394;28;20034;-75
2023/01/27 04:19:10;;;;;;;2.22;1.10;;;;;;;;;;5015020;28;20052;-74
2023/01/27 04:21:36;;;;;;;1.88;1.27;;;;;;;;;;5022596;28;20267;-74
2023/01/27 04:24:03;;;;;;;3.92;1.20;;;;;;;;;;5015182;28;20415;-74
2023/01/27 04:26:32;;;;;;;1.58;1.10;;;;;;;;;;5020311;28;20022;-74
2023/01/27 04:28:58;;;;;;;2.13;1.10;;;;;;;;;;5014394;28;20037;-74
2023/01/27 04:31:24;;;;;;;1.63;1.17;;;;;;;;;;5007881;28;20065;-74
2023/01/27 04:33:50;;;;;;;1.90;0.90;;;;;;;;;;5013878;28;20477;-74
2023/01/27 04:36:16;;;;;;;1.83;1.13;;;;;;;;;;5022344;28;20029;-74
2023/01/27 04:38:42;;;;;;;1.70;1.33;;;;;;;;;;5021045;28;20029;-74
2023/01/27 04:41:08;;;;;;;2.17;1.20;;;;;;;;;;5014727;28;20025;-74
2023/01/27 04:43:34;;;;;;;2.50;1.40;;;;;;;;;;5018113;28;20021;-74
2023/01/27 04:46:00;;;;;;;1.73;1.17;;;;;;;;;;5022626;28;20022;-75
2023/01/27 04:48:26;;;;;;;1.77;1.25;;;;;;;;;;5012595;28;20033;-75
2023/01/27 04:50:52;;;;;;;2.13;1.35;;;;;;;;;;5014266;28;20030;-75
2023/01/27 04:53:18;;;;;;;3.38;1.38;;;;;;;;;;5026207;28;20456;-76
2023/01/27 04:55:47;;;;;;;1.75;1.13;;;;;;;;;;5022220;28;20025;-75
2023/01/27 04:58:13;;;;;;;1.58;1.10;;;;;;;;;;5017347;28;20034;-75
2023/01/27 05:00:39;;;;;;;1.80;1.15;;;;;;;;;;5017679;28;20049;-75
2023/01/27 05:03:05;;;;;;;2.08;1.08;;;;;;;;;;5014720;28;20556;-75
2023/01/27 05:05:31;;;;;;;1.98;1.05;;;;;;;;;;5015287;28;20033;-75
2023/01/27 05:08:02;;;;;;;3.78;1.10;;;;;;;;;;5021773;28;20611;-75
2023/01/27 05:10:28;;;;;;;1.30;1.20;;;;;;;;;;5014061;28;20032;-75
2023/01/27 05:12:54;;;;;;;2.05;1.33;;;;;;;;;;5023798;28;20037;-75
2023/01/27 05:15:20;;;;;;;1.73;1.23;;;;;;;;;;5023270;28;20018;-75
2023/01/27 05:17:46;;;;;;;1.83;1.15;;;;;;;;;;5017132;28;20022;-75
2023/01/27 05:20:12;;;;;;;1.48;1.10;;;;;;;;;;5014337;28;20033;-76
2023/01/27 05:22:38;;;;;;;1.58;1.23;;;;;;;;;;5018226;28;20030;-75
2023/01/27 05:25:04;;;;;;;2.55;1.15;;;;;;;;;;5025863;28;20030;-75
2023/01/27 05:27:30;;;;;;;3.40;1.40;;;;;;;;;;5027368;28;20061;-75
2023/01/27 05:29:57;;;;;;;1.95;1.10;;;;;;;;;;5015615;28;20040;-74
2023/01/27 05:32:23;;;;;;;1.85;1.25;;;;;;;;;;5020643;28;20026;-74
2023/01/27 05:34:49;;;;;;;1.88;1.17;;;;;;;;;;5014080;28;20026;-74
2023/01/27 05:37:15;;;;;;;3.10;1.20;;;;;;;;;;5019567;28;20025;-75
2023/01/27 05:39:41;;;;;;;1.67;1.00;;;;;;;;;;5017741;28;20030;-75
2023/01/27 05:42:06;;;;;;;1.95;1.30;;;;;;;;;;5021210;28;20038;-74
2023/01/27 05:44:32;;;;;;;1.60;1.10;;;;;;;;;;5015115;28;20030;-74
2023/01/27 05:46:58;;;;;;;2.03;1.17;;;;;;;;;;5011588;28;20445;-75
2023/01/27 05:49:24;;;;;;;1.65;1.10;;;;;;;;;;5024210;28;20028;-74
2023/01/27 05:51:50;;;;;;;2.85;1.00;;;;;;;;;;5013217;28;20084;-74
2023/01/27 05:54:16;;;;;;;2.10;1.02;;;;;;;;;;5015949;28;20030;-75
2023/01/27 05:56:48;;;;;;;1.38;0.77;;;;;;;;;;5023741;28;20044;-76
2023/01/27 05:59:14;;;;;;;1.50;0.93;;;;;;;;;;5016458;28;20025;-76
2023/01/27 06:01:40;;;;;;;0.88;0.85;;;;;;;;;;5012156;28;20505;-75
2023/01/27 06:04:06;;;;;;;1.23;0.90;;;;;;;;;;5020843;28;20031;-76
2023/01/27 06:06:33;;;;;;;1.17;0.85;;;;;;;;;;5019845;28;20485;-76
2023/01/27 06:08:59;;;;;;;2.97;1.33;;;;;;;;;;5020751;28;20532;-75
2023/01/27 06:11:25;;;;;;;1.13;0.80;;;;;;;;;;5030269;28;20037;-74
2023/01/27 06:13:52;;;;;;;1.13;0.90;;;;;;;;;;5023700;28;20037;-74
2023/01/27 06:16:19;;;;;;;1.00;0.85;;;;;;;;;;5026469;28;20123;-74
2023/01/27 06:18:45;;;;;;;1.55;1.05;;;;;;;;;;5014862;28;20037;-74
2023/01/27 06:21:12;;;;;;;1.25;1.13;;;;;;;;;;5011166;28;20029;-75
2023/01/27 06:23:38;;;;;;;2.53;1.02;;;;;;;;;;5017995;28;20036;-75
2023/01/27 06:26:08;;;;;;;3.10;1.10;;;;;;;;;;5016303;28;20498;-74
2023/01/27 06:28:38;;;;;;;1.98;1.45;;;;;;;;;;5029209;28;20769;-75
2023/01/27 06:31:18;;;;;;;1.33;0.93;;;;;;;;;;5020056;28;20028;-76
2023/01/27 06:33:44;;;;;;;1.38;0.90;;;;;;;;;;5011836;28;20053;-74
2023/01/27 06:36:14;;;;;;;1.60;1.13;;;;;;;;;;5025763;28;20490;-74
2023/01/27 06:38:40;;;;;;;1.45;1.10;;;;;;;;;;5015819;28;20025;-73
2023/01/27 06:41:06;;;;;;;1.20;0.80;;;;;;;;;;5010283;28;20502;-73
2023/01/27 06:43:32;;;;;;;1.50;1.17;;;;;;;;;;5009620;28;20045;-74
2023/01/27 06:45:58;;;;;;;1.65;1.08;;;;;;;;;;5025766;28;20030;-74
2023/01/27 06:48:25;;;;;;;1.10;0.95;;;;;;;;;;5020751;28;20084;-75
2023/01/27 06:50:51;;;;;;;1.83;1.02;;;;;;;;;;5022698;28;20033;-74
2023/01/27 06:53:17;;;;;;;1.48;1.10;;;;;;;;;;5006321;28;20033;-75
2023/01/27 06:55:44;;;;;;;2.25;1.42;;;;;;;;;;5030611;28;20021;-75
2023/01/27 06:58:11;;;;;;;1.42;1.00;;;;;;;;;;5032372;28;20108;-75
2023/01/27 07:00:37;;;;;;;1.60;1.05;;;;;;;;;;5024885;28;20046;-75
2023/01/27 07:03:03;;;;;;;1.48;1.00;;;;;;;;;;5017789;28;20025;-74
2023/01/27 07:05:29;;;;;;;1.17;0.98;;;;;;;;;;5017278;28;20036;-73
2023/01/27 07:07:55;;;;;;;1.27;0.93;;;;;;;;;;5010176;28;20034;-73
2023/01/27 07:10:21;;;;;;;1.83;1.27;;;;;;;;;;5024790;28;20029;-74
2023/01/27 07:12:47;;;;;;;0.85;0.70;;;;;;;;;;5030044;28;20481;-74
2023/01/27 07:15:14;;;;;;;1.48;1.27;;;;;;;;;;5035877;28;20026;-74
2023/01/27 07:17:40;;;;;;;2.17;0.95;;;;;;;;;;5027739;28;20018;-74
2023/01/27 07:20:08;;;;;;;1.27;1.10;;;;;;;;;;5006863;28;20164;-74
2023/01/27 07:22:34;;;;;;;2.30;1.30;;;;;;;;;;5025301;28;20037;-76
2023/01/27 07:25:01;;;;;;;2.05;1.20;;;;;;;;;;5014075;28;20113;-74
2023/01/27 07:27:27;;;;;;;2.03;1.10;;;;;;;;;;5020405;28;20048;-75
2023/01/27 07:29:53;;;;;;;2.20;1.00;;;;;;;;;;5013291;28;20029;-75
2023/01/27 07:32:19;;;;;;;1.83;1.20;;;;;;;;;;5017109;28;20045;-75
2023/01/27 07:34:45;;;;;;;1.98;1.40;;;;;;;;;;5004894;28;20018;-74
2023/01/27 07:37:11;;;;;;;1.58;1.02;;;;;;;;;;5012037;28;20524;-74
2023/01/27 07:39:37;;;;;;;1.50;1.25;;;;;;;;;;5015249;28;20021;-74
2023/01/27 07:42:04;;;;;;;2.55;1.23;;;;;;;;;;5026982;28;20117;-75
2023/01/27 07:44:30;;;;;;;1.23;1.00;;;;;;;;;;5025873;28;20026;-75
2023/01/27 07:46:57;;;;;;;2.35;1.30;;;;;;;;;;5030805;28;20033;-75
2023/01/27 07:49:23;;;;;;;1.65;1.20;;;;;;;;;;5010641;28;20079;-76
2023/01/27 07:51:49;;;;;;;2.63;1.10;;;;;;;;;;5004709;28;20030;-75
2023/01/27 07:54:15;;;;;;;1.98;1.13;;;;;;;;;;5016881;28;20037;-74
2023/01/27 07:56:41;;;;;;;3.25;1.52;;;;;;;;;;5014126;28;20030;-75
2023/01/27 07:59:09;;;;;;;4.75;1.75;;;;;;;;;;5028905;28;20029;-76
2023/01/27 08:01:35;;;;;;;4.88;1.20;;;;;;;;;;5021430;28;20739;-76
2023/01/27 08:04:01;;;;;;;2.17;1.10;;;;;;;;;;5020085;28;20546;-76
2023/01/27 08:06:28;;;;;;;2.22;1.17;;;;;;;;;;5026947;28;20029;-74
2023/01/27 08:08:53;;;;;;;1.85;1.30;;;;;;;;;;5014886;28;20026;-73
2023/01/27 08:11:20;;;;;;;3.05;1.20;;;;;;;;;;5020240;28;20528;-74
2023/01/27 08:13:46;;;;;;;3.05;1.20;;;;;;;;;;5007361;28;20040;-74
2023/01/27 08:16:13;;;;;;;2.97;1.38;;;;;;;;;;5022362;28;20029;-73
2023/01/27 08:18:39;;;;;;;1.45;1.00;;;;;;;;;;5018084;28;20529;-74
2023/01/27 08:21:06;;;;;;;1.35;0.88;;;;;;;;;;5021039;28;20089;-73
2023/01/27 08:23:33;;;;;;;1.45;1.05;;;;;;;;;;5035136;28;20427;-73
2023/01/27 08:26:00;;;;;;;1.92;1.20;;;;;;;;;;5023051;28;20068;-74
2023/01/27 08:28:27;;;;;;;1.02;0.88;;;;;;;;;;5027553;28;20037;-74
2023/01/27 08:30:53;;;;;;;3.10;1.42;;;;;;;;;;5030187;28;20025;-74
2023/01/27 08:33:20;;;;;;;2.72;1.38;;;;;;;;;;5026062;28;21206;-73
2023/01/27 08:35:47;;;;;;;1.65;1.23;;;;;;;;;;5025067;28;20531;-74
2023/01/27 08:38:14;;;;;;;1.30;1.20;;;;;;;;;;5022009;28;20032;-75
2023/01/27 08:40:40;;;;;;;2.38;1.17;;;;;;;;;;5027256;28;20034;-74
2023/01/27 08:43:06;;;;;;;1.20;1.05;;;;;;;;;;5016382;28;20527;-73
2023/01/27 08:45:32;;;;;;;2.30;1.17;;;;;;;;;;5019541;28;20159;-70
2023/01/27 08:47:58;;;;;;;2.22;1.08;;;;;;;;;;5028935;28;20029;-79
2023/01/27 08:50:24;;;;;;;1.88;1.10;;;;;;;;;;5018871;28;20038;-79
2023/01/27 08:52:50;;;;;;;2.00;1.10;;;;;;;;;;5038185;28;20390;-79
2023/01/27 08:55:16;;;;;;;2.35;1.23;;;;;;;;;;5015907;28;20063;-79
2023/01/27 08:57:42;;;;;;;2.75;1.20;;;;;;;;;;5018881;28;20041;-79
2023/01/27 09:00:11;;;;;;;3.17;1.15;;;;;;;;;;5023106;28;20513;-80
2023/01/27 09:02:37;;;;;;;1.30;1.00;;;;;;;;;;5020004;28;20032;-79
2023/01/27 09:05:03;;;;;;;4.18;1.20;;;;;;;;;;5023329;28;20485;-80
2023/01/27 09:07:29;;;;;;;1.45;1.17;;;;;;;;;;5014757;28;20025;-79
2023/01/27 09:09:55;;;;;;;3.75;1.35;;;;;;;;;;5021757;28;20498;-77
2023/01/27 09:12:21;;;;;;;2.20;1.23;;;;;;;;;;5033460;28;20028;-75
2023/01/27 09:14:47;;;;;;;1.65;1.23;;;;;;;;;;5029043;28;20033;-76
2023/01/27 09:17:18;;;;;;;1.80;1.00;;;;;;;;;;5027223;28;20047;-75
2023/01/27 09:19:44;;;;;;;1.15;0.90;;;;;;;;;;5030471;28;20025;-83
2023/01/27 09:22:10;;;;;;;1.67;1.23;;;;;;;;;;5026373;28;20033;-79
2023/01/27 09:24:36;;;;;;;1.42;1.08;;;;;;;;;;5016567;28;20029;-80
2023/01/27 09:27:02;;;;;;;1.75;1.08;;;;;;;;;;5029622;28;20033;-80
2023/01/27 09:29:31;;;;;;;2.85;0.93;;;;;;;;;;5018641;28;20025;-79
2023/01/27 09:31:56;;;;;;;1.77;1.10;;;;;;;;;;5021665;28;20160;-79
2023/01/27 09:34:22;;;;;;;1.25;0.70;;;;;;;;;;5023339;28;20490;-80
2023/01/27 09:36:51;;;;;;;0.73;0.68;;;;;;;;;;5019087;28;20033;-80
2023/01/27 09:39:18;;;;;;;8.05;0.90;;;;;;;;;;5028942;28;20433;-79
2023/01/27 09:42:02;;;;;;;1.65;1.27;;;;;;;;;;5024331;28;20029;-79
2023/01/27 09:44:37;;;;;;;1.55;1.10;;;;;;;;;;5022845;28;20037;-79
2023/01/27 09:47:18;;;;;;;3.15;0.98;;;;;;;;;;5026630;28;20021;-79
2023/01/27 09:50:02;;;;;;;2.28;1.23;;;;;;;;;;5012940;28;20053;-79
2023/01/27 09:52:53;;;;;;;1.33;0.75;;;;;;;;;;5032919;28;20029;-79
2023/01/27 09:55:25;;;;;;;2.13;1.10;;;;;;;;;;5024580;28;20024;-80
2023/01/27 09:58:13;;;;;;;1.58;1.08;;;;;;;;;;5030208;28;20025;-79
2023/01/27 10:00:56;;;;;;;3.97;1.10;;;;;;;;;;5026857;28;20050;-79
2023/01/27 10:03:42;;;;;;;1.02;0.90;;;;;;;;;;5001091;28;20033;-79
2023/01/27 10:06:08;;;;;;;1.75;1.35;;;;;;;;;;5011622;28;20423;-77
2023/01/27 10:08:53;;;;;;;1.50;0.77;;;;;;;;;;5027701;28;20064;-76
2023/01/27 10:11:37;;;;;;;2.67;0.85;;;;;;;;;;5022268;28;20071;-79
2023/01/27 10:14:16;;;;;;;3.38;1.05;;;;;;;;;;5014674;28;20037;-78
2023/01/27 10:16:56;;;;;;;2.10;0.82;;;;;;;;;;5009872;28;20036;-75
2023/01/27 10:19:41;;;;;;;0.60;0.60;;;;;;;;;;5009623;28;20021;-78
2023/01/27 10:22:10;;;;;;;1.85;0.90;;;;;;;;;;5013698;28;20030;-79
2023/01/27 10:24:55;;;;;;;0.63;0.63;;;;;;;;;;5035277;28;20071;-75
2023/01/27 10:27:23;;;;;;;1.30;0.90;;;;;;;;;;5025835;28;20025;-75
2023/01/27 10:29:51;;;;;;;0.98;0.85;;;;;;;;;;5018019;28;20046;-75
2023/01/27 10:32:23;;;;;;;5.30;0.77;;;;;;;;;;5013735;28;20031;-74
2023/01/27 10:34:57;;;;;;;1.33;0.73;;;;;;;;;;5031824;28;20384;-75
2023/01/27 10:37:31;;;;;;;0.90;0.75;;;;;;;;;;5027137;28;20071;-74
2023/01/27 10:40:05;;;;;;;3.33;1.25;;;;;;;;;;5029937;28;20029;-75
2023/01/27 10:42:35;;;;;;;1.77;0.73;;;;;;;;;;5028415;28;20032;-76
2023/01/27 10:45:04;;;;;;;1.33;0.80;;;;;;;;;;5006724;28;20080;-75
2023/01/27 10:47:51;;;;;;;1.17;0.90;;;;;;;;;;5013622;28;20038;-75
2023/01/27 10:50:29;;;;;;;1.13;0.75;;;;;;;;;;5013531;28;20018;-75
2023/01/27 10:53:10;;;;;;;2.47;0.60;;;;;;;;;;5016593;28;20041;-75
2023/01/27 10:55:43;;;;;;;1.58;1.00;;;;;;;;;;5010591;28;20088;-75
2023/01/27 10:58:20;;;;;;;1.13;0.60;;;;;;;;;;5016677;28;20060;-75
2023/01/27 11:00:48;;;;;;;2.03;0.95;;;;;;;;;;5025770;28;20099;-76
2023/01/27 11:03:22;;;;;;;3.00;0.60;;;;;;;;;;5036716;28;20035;-76
2023/01/27 11:05:50;;;;;;;0.68;0.68;;;;;;;;;;5019280;28;20030;-76
2023/01/27 11:08:22;;;;;;;3.47;0.70;;;;;;;;;;5022680;28;20029;-75
2023/01/27 11:13:34;;;;;;;1.63;0.73;;;;;;;;;;5023112;28;20036;-76
2023/01/27 11:16:01;;;;;;;2.53;0.82;;;;;;;;;;5018866;28;20033;-76
2023/01/27 11:18:29;;;;;;;0.82;0.70;;;;;;;;;;5009703;28;20097;-75
2023/01/27 11:21:14;;;;;;;1.30;0.80;;;;;;;;;;4984519;28;20029;-74
2023/01/27 11:23:42;;;;;;;1.02;0.65;;;;;;;;;;5008107;28;20037;-75
2023/01/27 11:26:11;;;;;;;2.47;0.80;;;;;;;;;;5006112;28;20026;-74
2023/01/27 11:28:41;;;;;;;1.13;0.80;;;;;;;;;;5020530;28;20557;-75
2023/01/27 11:31:31;;;;;;;1.42;0.80;;;;;;;;;;5010068;28;20430;-75
2023/01/27 11:34:18;;;;;;;1.30;0.80;;;;;;;;;;5012373;28;20046;-75
2023/01/27 11:36:44;;;;;;;1.05;0.57;;;;;;;;;;5011750;28;20018;-75
2023/01/27 11:39:11;;;;;;;1.77;1.00;;;;;;;;;;5016358;28;20359;-75
2023/01/27 11:41:39;;;;;;;0.65;0.60;;;;;;;;;;5009749;28;20049;-75
2023/01/27 11:44:07;;;;;;;0.98;0.65;;;;;;;;;;5017003;28;20032;-74
2023/01/27 11:46:34;;;;;;;1.35;0.90;;;;;;;;;;5025162;28;20064;-74
2023/01/27 11:49:01;;;;;;;0.85;0.60;;;;;;;;;;5022843;28;20096;-75
2023/01/27 11:51:32;;;;;;;0.60;0.40;;;;;;;;;;5020258;28;20021;-74
2023/01/27 11:53:59;;;;;;;3.40;0.82;;;;;;;;;;5026219;28;20105;-75
2023/01/27 11:56:26;;;;;;;2.25;0.73;;;;;;;;;;5015442;28;20025;-75
2023/01/27 11:58:56;;;;;;;0.70;0.70;;;;;;;;;;5019806;28;20022;-75
2023/01/27 12:01:24;;;;;;;3.28;0.80;;;;;;;;;;5019671;28;20037;-75
2023/01/27 12:03:59;;;;;;;1.02;0.70;;;;;;;;;;5031628;28;20034;-76
2023/01/27 12:06:37;;;;;;;2.15;0.82;;;;;;;;;;5010600;28;20600;-76
2023/01/27 12:09:03;;;;;;;1.00;0.68;;;;;;;;;;5017749;28;20736;-76
2023/01/27 12:11:30;;;;;;;1.30;0.98;;;;;;;;;;5012192;28;20033;-76
2023/01/27 12:14:00;;;;;;;1.50;0.82;;;;;;;;;;5007049;28;20048;-75
2023/01/27 12:16:29;;;;;;;0.77;0.77;;;;;;;;;;5010949;28;20052;-75
2023/01/27 12:18:58;;;;;;;0.70;0.63;;;;;;;;;;5016742;28;20057;-75
2023/01/27 12:21:54;;;;;;;2.22;0.90;;;;;;;;;;5017168;28;20123;-76
2023/01/27 12:24:26;;;;;;;0.75;0.60;;;;;;;;;;4997799;28;20045;-76
2023/01/27 12:26:53;;;;;;;0.47;0.47;;;;;;;;;;5014290;28;20051;-76
2023/01/27 12:29:22;;;;;;;3.08;0.70;;;;;;;;;;5017903;28;20095;-76
2023/01/27 12:31:50;;;;;;;0.95;0.55;;;;;;;;;;5011538;28;20045;-76
2023/01/27 12:34:27;;;;;;;1.20;0.70;;;;;;;;;;5011404;28;20052;-76
2023/01/27 12:36:53;;;;;;;1.27;0.70;;;;;;;;;;5018748;28;20033;-76
2023/01/27 12:39:26;;;;;;;1.92;0.80;;;;;;;;;;5018235;28;20034;-78
2023/01/27 12:41:53;;;;;;;2.03;0.82;;;;;;;;;;5008920;28;20026;-74
2023/01/27 12:44:21;;;;;;;4.63;1.25;;;;;;;;;;5019119;28;20406;-75
2023/01/27 12:47:00;;;;;;;0.90;0.75;;;;;;;;;;5010740;28;20514;-75
2023/01/27 12:49:30;;;;;;;1.20;0.82;;;;;;;;;;5009227;28;20084;-75
2023/01/27 12:51:56;;;;;;;1.30;0.65;;;;;;;;;;5018020;28;20037;-74
2023/01/27 12:54:26;;;;;;;0.50;0.50;;;;;;;;;;5009458;28;20026;-75
2023/01/27 12:56:53;;;;;;;2.55;0.60;;;;;;;;;;5009243;28;20467;-74
2023/01/27 12:59:20;;;;;;;1.52;0.82;;;;;;;;;;5014475;28;20030;-75
2023/01/27 13:01:58;;;;;;;1.13;0.68;;;;;;;;;;5010415;28;20052;-75
2023/01/27 13:04:27;;;;;;;1.23;0.47;;;;;;;;;;5011515;28;20040;-75
2023/01/27 13:06:54;;;;;;;0.93;0.65;;;;;;;;;;5020118;28;20025;-75
2023/01/27 13:09:50;;;;;;;1.38;0.80;;;;;;;;;;5015343;28;20437;-75
2023/01/27 13:12:19;;;;;;;0.93;0.68;;;;;;;;;;5014937;28;20030;-75
2023/01/27 13:14:49;;;;;;;0.60;0.52;;;;;;;;;;5015823;28;20442;-75
2023/01/27 13:17:26;;;;;;;1.73;0.60;;;;;;;;;;5012478;28;20271;-76
2023/01/27 13:19:53;;;;;;;0.80;0.70;;;;;;;;;;5010369;28;20037;-78
2023/01/27 13:22:22;;;;;;;2.13;0.82;;;;;;;;;;5028981;28;20029;-92
2023/01/27 13:24:50;;;;;;;1.77;0.75;;;;;;;;;;5019602;28;20501;-90
2023/01/27 13:27:19;;;;;;;1.35;0.82;;;;;;;;;;5023736;28;20168;-92
2023/01/27 13:29:51;;;;;;;2.17;0.75;;;;;;;;;;5020625;28;20032;-74
2023/01/27 13:32:19;;;;;;;0.70;0.50;;;;;;;;;;5013716;28;20033;-76
2023/01/27 13:34:54;;;;;;;0.63;0.60;;;;;;;;;;5005952;28;20026;-76
2023/01/27 13:37:31;;;;;;;1.20;0.77;;;;;;;;;;5011426;28;20022;-75
2023/01/27 13:40:17;;;;;;;1.55;1.10;;;;;;;;;;5012204;28;20458;-75
2023/01/27 13:42:44;;;;;;;0.93;0.60;;;;;;;;;;5026959;28;20032;-76
2023/01/27 13:45:10;;;;;;;0.60;0.60;;;;;;;;;;5020309;28;20362;-76
2023/01/27 13:47:44;;;;;;;1.05;0.63;;;;;;;;;;5028659;28;20060;-75
2023/01/27 13:50:21;;;;;;;1.30;0.65;;;;;;;;;;5023209;28;20037;-76
2023/01/27 13:52:50;;;;;;;0.88;0.77;;;;;;;;;;5023225;28;20722;-76
2023/01/27 13:55:19;;;;;;;0.88;0.63;;;;;;;;;;5042310;28;20531;-76
2023/01/27 13:58:00;;;;;;;1.30;0.98;;;;;;;;;;5027692;28;20033;-76
2023/01/27 14:00:37;;;;;;;1.52;0.70;;;;;;;;;;5016010;28;20041;-76
2023/01/27 14:03:23;;;;;;;0.98;0.57;;;;;;;;;;5006731;28;20534;-76
2023/01/27 14:06:00;;;;;;;0.73;0.60;;;;;;;;;;5021353;28;20029;-76
2023/01/27 14:08:26;;;;;;;3.08;0.68;;;;;;;;;;5024533;28;20067;-78
2023/01/27 14:11:04;;;;;;;0.70;0.70;;;;;;;;;;5020735;28;20029;-79
2023/01/27 14:13:40;;;;;;;0.80;0.70;;;;;;;;;;5015016;28;20033;-77
2023/01/27 14:16:22;;;;;;;1.33;0.70;;;;;;;;;;5007126;28;20026;-74
2023/01/27 14:18:48;;;;;;;;;;;;;;;;;;5017397;28;20021;-76
2023/01/27 14:21:22;;;;;;;0.90;0.50;;;;;;;;;;5010024;28;20000;-75
2023/01/27 14:24:07;;;;;;;0.70;0.60;;;;;;;;;;5019969;28;20034;-75
2023/01/27 14:26:43;;;;;;;0.93;0.77;;;;;;;;;;5020848;28;20036;-78
2023/01/27 14:29:28;;;;;;;0.80;0.50;;;;;;;;;;5027664;28;20040;-75
2023/01/27 14:32:00;;;;;;;2.55;1.30;;;;;;;;;;5010094;28;20030;-73
2023/01/27 14:34:46;;;;;;;1.33;0.85;;;;;;;;;;5015700;28;20034;-74
2023/01/27 14:37:21;;;;;;;6.88;1.55;;;;;;;;;;5022141;28;20633;-75
2023/01/27 14:40:11;;;;;;;4.25;1.23;;;;;;;;;;5016687;28;20044;-75
2023/01/27 14:42:44;;;;;;;6.20;1.60;;;;;;;;;;5016981;28;20040;-75
2023/01/27 14:45:23;;;;;;;5.65;2.30;;;;;;;;;;5023150;28;20503;-75
2023/01/27 14:47:49;;;;;;;11.27;3.03;;;;;;;;;;5018783;28;20044;-75
2023/01/27 14:50:14;;;;;;;12.38;3.25;;;;;;;;;;5011652;28;20486;-75
2023/01/27 14:52:47;;;;;;;8.68;2.38;;;;;;;;;;5020324;28;20034;-75
2023/01/27 14:55:16;;;;;;;8.77;2.80;;;;;;;;;;5007952;28;20125;-75
2023/01/27 14:57:48;;;;;;;9.07;3.33;;;;;;;;;;5017246;28;20048;-74
2023/01/27 15:00:17;;;;;;;8.32;3.85;;;;;;;;;;5009833;28;20060;-78
2023/01/27 15:02:43;;;;;;;11.10;3.15;;;;;;;;;;5012714;28;20115;-76
2023/01/27 15:05:27;;;;;;;6.70;2.78;;;;;;;;;;5013861;28;20525;-76
2023/01/27 15:07:59;;;;;;;12.77;4.20;;;;;;;;;;5020031;28;20037;-78
2023/01/27 15:10:25;;;;;;;10.30;3.03;;;;;;;;;;5015851;28;20023;-74
2023/01/27 15:12:54;;;;;;;12.43;3.40;;;;;;;;;;5026123;28;20552;-75
2023/01/27 15:15:23;;;;;;;9.77;3.38;;;;;;;;;;5014860;28;20789;-75
2023/01/27 15:17:56;;;;;;;8.27;3.40;;;;;;;;;;5015896;28;20619;-75
2023/01/27 15:20:29;;;;;;;9.00;4.03;;;;;;;;;;5017085;28;20025;-75
2023/01/27 15:23:09;;;;;;;6.85;3.35;;;;;;;;;;5019390;28;20040;-76
2023/01/27 15:25:40;;;;;;;10.70;3.78;;;;;;;;;;5008455;28;20076;-76